sensor_id;sensor_type;location;lat;lon;timestamp;P1;durP1;ratioP1;P2;durP2;ratioP2
12910;SDS011;6523;49.758;6.120;2023-06-22T00:00:50;9.47;;;7.27;;
12910;SDS011;6523;49.758;6.120;2023-06-22T00:03:17;12.70;;;8.40;;
12910;SDS011;6523;49.758;6.120;2023-06-22T00:05:44;11.30;;;8.37;;
12910;SDS011;6523;49.758;6.120;2023-06-22T00:08:10;11.00;;;8.60;;
12910;SDS011;6523;49.758;6.120;2023-06-22T00:10:36;8.73;;;8.00;;
12910;SDS011;6523;49.758;6.120;2023-06-22T00:13:02;9.97;;;8.93;;
12910;SDS011;6523;49.758;6.120;2023-06-22T00:15:28;9.27;;;8.33;;
12910;SDS011;6523;49.758;6.120;2023-06-22T00:17:53;12.43;;;8.47;;
12910;SDS011;6523;49.758;6.120;2023-06-22T00:20:19;10.23;;;8.80;;
12910;SDS011;6523;49.758;6.120;2023-06-22T00:22:45;9.93;;;9.03;;
12910;SDS011;6523;49.758;6.120;2023-06-22T00:25:11;10.10;;;8.80;;
12910;SDS011;6523;49.758;6.120;2023-06-22T00:27:36;9.17;;;8.20;;
12910;SDS011;6523;49.758;6.120;2023-06-22T00:30:02;9.80;;;8.60;;
12910;SDS011;6523;49.758;6.120;2023-06-22T00:32:28;10.80;;;9.87;;
12910;SDS011;6523;49.758;6.120;2023-06-22T00:34:54;12.37;;;9.53;;
12910;SDS011;6523;49.758;6.120;2023-06-22T00:37:19;11.73;;;9.63;;
12910;SDS011;6523;49.758;6.120;2023-06-22T00:39:47;9.93;;;9.00;;
12910;SDS011;6523;49.758;6.120;2023-06-22T00:42:13;11.53;;;10.47;;
12910;SDS011;6523;49.758;6.120;2023-06-22T00:44:39;11.23;;;10.20;;
12910;SDS011;6523;49.758;6.120;2023-06-22T00:47:05;11.60;;;10.50;;
12910;SDS011;6523;49.758;6.120;2023-06-22T00:49:31;11.27;;;10.10;;
12910;SDS011;6523;49.758;6.120;2023-06-22T00:51:57;12.03;;;10.40;;
12910;SDS011;6523;49.758;6.120;2023-06-22T00:54:23;12.30;;;9.77;;
12910;SDS011;6523;49.758;6.120;2023-06-22T00:56:55;12.27;;;11.07;;
12910;SDS011;6523;49.758;6.120;2023-06-22T00:59:23;10.83;;;9.80;;
12910;SDS011;6523;49.758;6.120;2023-06-22T01:01:49;12.57;;;11.37;;
12910;SDS011;6523;49.758;6.120;2023-06-22T01:04:15;12.70;;;10.40;;
12910;SDS011;6523;49.758;6.120;2023-06-22T01:06:42;12.23;;;11.03;;
12910;SDS011;6523;49.758;6.120;2023-06-22T01:09:31;14.80;;;13.17;;
12910;SDS011;6523;49.758;6.120;2023-06-22T01:12:01;16.33;;;13.67;;
12910;SDS011;6523;49.758;6.120;2023-06-22T01:17:05;14.73;;;12.53;;
12910;SDS011;6523;49.758;6.120;2023-06-22T01:22:22;14.90;;;13.30;;
12910;SDS011;6523;49.758;6.120;2023-06-22T01:27:53;15.07;;;13.57;;
12910;SDS011;6523;49.758;6.120;2023-06-22T01:30:26;15.43;;;13.97;;
12910;SDS011;6523;49.758;6.120;2023-06-22T01:32:54;17.13;;;15.33;;
12910;SDS011;6523;49.758;6.120;2023-06-22T01:35:20;16.37;;;14.67;;
12910;SDS011;6523;49.758;6.120;2023-06-22T01:37:46;16.67;;;15.00;;
12910;SDS011;6523;49.758;6.120;2023-06-22T01:40:13;16.23;;;14.60;;
12910;SDS011;6523;49.758;6.120;2023-06-22T01:42:39;16.77;;;15.00;;
12910;SDS011;6523;49.758;6.120;2023-06-22T01:45:06;17.07;;;15.27;;
12910;SDS011;6523;49.758;6.120;2023-06-22T01:47:33;15.47;;;13.87;;
12910;SDS011;6523;49.758;6.120;2023-06-22T01:49:59;15.13;;;13.60;;
12910;SDS011;6523;49.758;6.120;2023-06-22T01:52:25;14.67;;;12.83;;
12910;SDS011;6523;49.758;6.120;2023-06-22T01:54:51;16.00;;;14.40;;
12910;SDS011;6523;49.758;6.120;2023-06-22T01:57:16;16.23;;;14.53;;
12910;SDS011;6523;49.758;6.120;2023-06-22T02:02:46;15.67;;;14.17;;
12910;SDS011;6523;49.758;6.120;2023-06-22T02:05:19;13.77;;;12.40;;
12910;SDS011;6523;49.758;6.120;2023-06-22T02:07:56;15.83;;;13.90;;
12910;SDS011;6523;49.758;6.120;2023-06-22T02:10:34;16.47;;;14.50;;
12910;SDS011;6523;49.758;6.120;2023-06-22T02:13:01;16.40;;;14.73;;
12910;SDS011;6523;49.758;6.120;2023-06-22T02:15:31;17.17;;;15.50;;
12910;SDS011;6523;49.758;6.120;2023-06-22T02:17:57;17.23;;;15.13;;
12910;SDS011;6523;49.758;6.120;2023-06-22T02:20:23;16.77;;;15.13;;
12910;SDS011;6523;49.758;6.120;2023-06-22T02:22:49;16.97;;;14.70;;
12910;SDS011;6523;49.758;6.120;2023-06-22T02:25:15;16.30;;;14.53;;
12910;SDS011;6523;49.758;6.120;2023-06-22T02:27:40;14.47;;;13.07;;
12910;SDS011;6523;49.758;6.120;2023-06-22T02:30:09;14.13;;;12.77;;
12910;SDS011;6523;49.758;6.120;2023-06-22T02:32:35;16.27;;;14.63;;
12910;SDS011;6523;49.758;6.120;2023-06-22T02:35:01;15.70;;;14.10;;
12910;SDS011;6523;49.758;6.120;2023-06-22T02:37:30;16.97;;;15.17;;
12910;SDS011;6523;49.758;6.120;2023-06-22T02:39:56;15.03;;;13.47;;
12910;SDS011;6523;49.758;6.120;2023-06-22T02:42:22;16.80;;;14.53;;
12910;SDS011;6523;49.758;6.120;2023-06-22T02:44:47;20.57;;;15.93;;
12910;SDS011;6523;49.758;6.120;2023-06-22T02:47:13;17.50;;;15.80;;
12910;SDS011;6523;49.758;6.120;2023-06-22T02:49:39;18.27;;;16.40;;
12910;SDS011;6523;49.758;6.120;2023-06-22T02:52:04;15.20;;;13.70;;
12910;SDS011;6523;49.758;6.120;2023-06-22T02:54:30;16.00;;;14.43;;
12910;SDS011;6523;49.758;6.120;2023-06-22T02:56:56;17.67;;;15.77;;
12910;SDS011;6523;49.758;6.120;2023-06-22T02:59:21;18.70;;;16.30;;
12910;SDS011;6523;49.758;6.120;2023-06-22T03:01:49;17.20;;;15.37;;
12910;SDS011;6523;49.758;6.120;2023-06-22T03:04:15;17.37;;;15.60;;
12910;SDS011;6523;49.758;6.120;2023-06-22T03:06:41;18.60;;;16.70;;
12910;SDS011;6523;49.758;6.120;2023-06-22T03:09:07;18.13;;;15.07;;
12910;SDS011;6523;49.758;6.120;2023-06-22T03:11:33;18.13;;;16.23;;
12910;SDS011;6523;49.758;6.120;2023-06-22T03:13:59;18.97;;;17.07;;
12910;SDS011;6523;49.758;6.120;2023-06-22T03:16:26;18.23;;;16.30;;
12910;SDS011;6523;49.758;6.120;2023-06-22T03:18:52;18.53;;;16.37;;
12910;SDS011;6523;49.758;6.120;2023-06-22T03:21:22;16.37;;;14.87;;
12910;SDS011;6523;49.758;6.120;2023-06-22T03:23:47;15.70;;;13.40;;
12910;SDS011;6523;49.758;6.120;2023-06-22T03:26:17;15.23;;;13.67;;
12910;SDS011;6523;49.758;6.120;2023-06-22T03:28:43;17.17;;;15.40;;
12910;SDS011;6523;49.758;6.120;2023-06-22T03:31:08;16.10;;;14.40;;
12910;SDS011;6523;49.758;6.120;2023-06-22T03:33:34;15.40;;;13.70;;
12910;SDS011;6523;49.758;6.120;2023-06-22T03:36:00;14.53;;;12.87;;
12910;SDS011;6523;49.758;6.120;2023-06-22T03:38:25;14.77;;;13.20;;
12910;SDS011;6523;49.758;6.120;2023-06-22T03:40:51;14.83;;;13.27;;
12910;SDS011;6523;49.758;6.120;2023-06-22T03:43:16;15.07;;;13.63;;
12910;SDS011;6523;49.758;6.120;2023-06-22T03:45:42;13.00;;;11.67;;
12910;SDS011;6523;49.758;6.120;2023-06-22T03:48:10;13.33;;;11.80;;
12910;SDS011;6523;49.758;6.120;2023-06-22T03:50:36;15.10;;;13.30;;
12910;SDS011;6523;49.758;6.120;2023-06-22T03:53:01;14.93;;;13.23;;
12910;SDS011;6523;49.758;6.120;2023-06-22T03:55:27;13.97;;;12.57;;
12910;SDS011;6523;49.758;6.120;2023-06-22T03:57:53;13.53;;;12.17;;
12910;SDS011;6523;49.758;6.120;2023-06-22T04:00:21;13.60;;;12.10;;
12910;SDS011;6523;49.758;6.120;2023-06-22T04:02:50;15.47;;;13.93;;
12910;SDS011;6523;49.758;6.120;2023-06-22T04:05:16;15.07;;;13.53;;
12910;SDS011;6523;49.758;6.120;2023-06-22T04:07:44;15.63;;;13.23;;
12910;SDS011;6523;49.758;6.120;2023-06-22T04:10:09;15.23;;;13.73;;
12910;SDS011;6523;49.758;6.120;2023-06-22T04:12:35;16.67;;;14.87;;
12910;SDS011;6523;49.758;6.120;2023-06-22T04:15:00;15.27;;;12.97;;
12910;SDS011;6523;49.758;6.120;2023-06-22T04:17:26;14.80;;;12.97;;
12910;SDS011;6523;49.758;6.120;2023-06-22T04:19:52;16.87;;;13.13;;
12910;SDS011;6523;49.758;6.120;2023-06-22T04:22:17;19.07;;;13.10;;
12910;SDS011;6523;49.758;6.120;2023-06-22T04:24:43;15.37;;;13.47;;
12910;SDS011;6523;49.758;6.120;2023-06-22T04:27:09;15.87;;;13.90;;
12910;SDS011;6523;49.758;6.120;2023-06-22T04:29:35;18.10;;;13.47;;
12910;SDS011;6523;49.758;6.120;2023-06-22T04:32:00;17.67;;;13.63;;
12910;SDS011;6523;49.758;6.120;2023-06-22T04:34:30;14.43;;;12.90;;
12910;SDS011;6523;49.758;6.120;2023-06-22T04:36:55;17.40;;;14.70;;
12910;SDS011;6523;49.758;6.120;2023-06-22T04:39:21;13.93;;;12.43;;
12910;SDS011;6523;49.758;6.120;2023-06-22T04:41:47;17.63;;;13.67;;
12910;SDS011;6523;49.758;6.120;2023-06-22T04:44:13;15.43;;;13.80;;
12910;SDS011;6523;49.758;6.120;2023-06-22T04:46:48;14.73;;;12.77;;
12910;SDS011;6523;49.758;6.120;2023-06-22T04:49:19;13.67;;;12.20;;
12910;SDS011;6523;49.758;6.120;2023-06-22T04:51:45;14.50;;;13.07;;
12910;SDS011;6523;49.758;6.120;2023-06-22T04:54:10;13.17;;;11.80;;
12910;SDS011;6523;49.758;6.120;2023-06-22T04:56:36;11.63;;;10.50;;
12910;SDS011;6523;49.758;6.120;2023-06-22T04:59:02;13.80;;;12.47;;
12910;SDS011;6523;49.758;6.120;2023-06-22T05:01:28;14.37;;;12.87;;
12910;SDS011;6523;49.758;6.120;2023-06-22T05:03:56;16.00;;;13.50;;
12910;SDS011;6523;49.758;6.120;2023-06-22T05:06:22;16.80;;;12.50;;
12910;SDS011;6523;49.758;6.120;2023-06-22T05:08:50;14.50;;;12.83;;
12910;SDS011;6523;49.758;6.120;2023-06-22T05:11:17;15.43;;;13.70;;
12910;SDS011;6523;49.758;6.120;2023-06-22T05:13:42;17.47;;;15.03;;
12910;SDS011;6523;49.758;6.120;2023-06-22T05:16:08;14.27;;;12.77;;
12910;SDS011;6523;49.758;6.120;2023-06-22T05:18:33;17.10;;;14.07;;
12910;SDS011;6523;49.758;6.120;2023-06-22T05:20:59;15.03;;;13.53;;
12910;SDS011;6523;49.758;6.120;2023-06-22T05:23:25;15.73;;;13.20;;
12910;SDS011;6523;49.758;6.120;2023-06-22T05:25:51;14.83;;;13.37;;
12910;SDS011;6523;49.758;6.120;2023-06-22T05:28:16;18.30;;;14.30;;
12910;SDS011;6523;49.758;6.120;2023-06-22T05:30:47;14.87;;;13.47;;
12910;SDS011;6523;49.758;6.120;2023-06-22T05:33:13;16.43;;;13.70;;
12910;SDS011;6523;49.758;6.120;2023-06-22T05:35:38;16.70;;;13.23;;
12910;SDS011;6523;49.758;6.120;2023-06-22T05:38:04;15.17;;;13.57;;
12910;SDS011;6523;49.758;6.120;2023-06-22T05:40:29;14.17;;;12.53;;
12910;SDS011;6523;49.758;6.120;2023-06-22T05:42:55;13.97;;;12.50;;
12910;SDS011;6523;49.758;6.120;2023-06-22T05:45:20;14.73;;;13.00;;
12910;SDS011;6523;49.758;6.120;2023-06-22T05:47:46;14.93;;;13.50;;
12910;SDS011;6523;49.758;6.120;2023-06-22T05:50:11;18.27;;;13.33;;
12910;SDS011;6523;49.758;6.120;2023-06-22T05:52:37;16.17;;;13.37;;
12910;SDS011;6523;49.758;6.120;2023-06-22T05:55:03;14.63;;;13.13;;
12910;SDS011;6523;49.758;6.120;2023-06-22T05:57:28;14.00;;;12.53;;
12910;SDS011;6523;49.758;6.120;2023-06-22T05:59:54;16.93;;;13.73;;
12910;SDS011;6523;49.758;6.120;2023-06-22T06:02:20;15.53;;;13.87;;
12910;SDS011;6523;49.758;6.120;2023-06-22T06:04:45;15.47;;;12.77;;
12910;SDS011;6523;49.758;6.120;2023-06-22T06:07:11;15.20;;;13.50;;
12910;SDS011;6523;49.758;6.120;2023-06-22T06:09:36;15.20;;;13.67;;
12910;SDS011;6523;49.758;6.120;2023-06-22T06:12:02;14.70;;;13.33;;
12910;SDS011;6523;49.758;6.120;2023-06-22T06:14:28;16.00;;;14.07;;
12910;SDS011;6523;49.758;6.120;2023-06-22T06:16:53;16.13;;;13.17;;
12910;SDS011;6523;49.758;6.120;2023-06-22T06:19:19;15.20;;;13.63;;
12910;SDS011;6523;49.758;6.120;2023-06-22T06:21:44;15.93;;;14.23;;
12910;SDS011;6523;49.758;6.120;2023-06-22T06:24:11;15.97;;;14.37;;
12910;SDS011;6523;49.758;6.120;2023-06-22T06:26:37;16.30;;;14.10;;
12910;SDS011;6523;49.758;6.120;2023-06-22T06:29:02;17.10;;;15.37;;
12910;SDS011;6523;49.758;6.120;2023-06-22T06:31:28;15.17;;;13.67;;
12910;SDS011;6523;49.758;6.120;2023-06-22T06:33:54;14.33;;;12.97;;
12910;SDS011;6523;49.758;6.120;2023-06-22T06:36:20;13.13;;;11.70;;
12910;SDS011;6523;49.758;6.120;2023-06-22T06:38:45;13.20;;;12.00;;
12910;SDS011;6523;49.758;6.120;2023-06-22T06:41:15;13.27;;;12.03;;
12910;SDS011;6523;49.758;6.120;2023-06-22T06:43:41;13.10;;;11.67;;
12910;SDS011;6523;49.758;6.120;2023-06-22T06:46:10;14.27;;;11.77;;
12910;SDS011;6523;49.758;6.120;2023-06-22T06:48:36;14.03;;;12.63;;
12910;SDS011;6523;49.758;6.120;2023-06-22T06:51:01;12.50;;;11.30;;
12910;SDS011;6523;49.758;6.120;2023-06-22T06:53:27;13.00;;;11.60;;
12910;SDS011;6523;49.758;6.120;2023-06-22T06:55:53;13.33;;;11.93;;
12910;SDS011;6523;49.758;6.120;2023-06-22T06:58:19;13.60;;;12.30;;
12910;SDS011;6523;49.758;6.120;2023-06-22T07:00:45;13.50;;;12.13;;
12910;SDS011;6523;49.758;6.120;2023-06-22T07:03:10;12.57;;;11.30;;
12910;SDS011;6523;49.758;6.120;2023-06-22T07:05:36;13.57;;;11.63;;
12910;SDS011;6523;49.758;6.120;2023-06-22T07:08:02;14.33;;;12.80;;
12910;SDS011;6523;49.758;6.120;2023-06-22T07:10:28;13.13;;;11.83;;
12910;SDS011;6523;49.758;6.120;2023-06-22T07:12:54;13.53;;;12.17;;
12910;SDS011;6523;49.758;6.120;2023-06-22T07:15:20;13.43;;;12.13;;
12910;SDS011;6523;49.758;6.120;2023-06-22T07:17:45;12.77;;;11.67;;
12910;SDS011;6523;49.758;6.120;2023-06-22T07:20:11;14.10;;;12.70;;
12910;SDS011;6523;49.758;6.120;2023-06-22T07:22:44;12.73;;;11.57;;
12910;SDS011;6523;49.758;6.120;2023-06-22T07:25:09;15.57;;;12.83;;
12910;SDS011;6523;49.758;6.120;2023-06-22T07:27:39;13.03;;;11.73;;
12910;SDS011;6523;49.758;6.120;2023-06-22T07:30:09;13.70;;;12.27;;
12910;SDS011;6523;49.758;6.120;2023-06-22T07:32:36;15.20;;;12.90;;
12910;SDS011;6523;49.758;6.120;2023-06-22T07:35:02;14.00;;;12.20;;
12910;SDS011;6523;49.758;6.120;2023-06-22T07:37:28;14.13;;;12.67;;
12910;SDS011;6523;49.758;6.120;2023-06-22T07:39:54;13.30;;;12.00;;
12910;SDS011;6523;49.758;6.120;2023-06-22T07:42:23;14.83;;;12.23;;
12910;SDS011;6523;49.758;6.120;2023-06-22T07:44:49;14.73;;;13.23;;
12910;SDS011;6523;49.758;6.120;2023-06-22T07:47:16;13.10;;;11.87;;
12910;SDS011;6523;49.758;6.120;2023-06-22T07:49:44;13.77;;;12.47;;
12910;SDS011;6523;49.758;6.120;2023-06-22T07:52:10;14.07;;;11.73;;
12910;SDS011;6523;49.758;6.120;2023-06-22T07:54:36;12.90;;;11.60;;
12910;SDS011;6523;49.758;6.120;2023-06-22T07:57:01;12.97;;;11.67;;
12910;SDS011;6523;49.758;6.120;2023-06-22T07:59:27;12.30;;;11.20;;
12910;SDS011;6523;49.758;6.120;2023-06-22T08:01:53;12.00;;;10.90;;
12910;SDS011;6523;49.758;6.120;2023-06-22T08:04:20;13.17;;;11.87;;
12910;SDS011;6523;49.758;6.120;2023-06-22T08:06:45;14.30;;;11.70;;
12910;SDS011;6523;49.758;6.120;2023-06-22T08:09:11;12.90;;;11.70;;
12910;SDS011;6523;49.758;6.120;2023-06-22T08:11:37;12.33;;;11.23;;
12910;SDS011;6523;49.758;6.120;2023-06-22T08:14:02;13.47;;;12.07;;
12910;SDS011;6523;49.758;6.120;2023-06-22T08:16:28;13.27;;;11.93;;
12910;SDS011;6523;49.758;6.120;2023-06-22T08:18:54;12.27;;;10.97;;
12910;SDS011;6523;49.758;6.120;2023-06-22T08:21:19;13.10;;;11.77;;
12910;SDS011;6523;49.758;6.120;2023-06-22T08:23:45;12.43;;;10.93;;
12910;SDS011;6523;49.758;6.120;2023-06-22T08:26:10;13.43;;;11.47;;
12910;SDS011;6523;49.758;6.120;2023-06-22T08:28:36;11.07;;;10.07;;
12910;SDS011;6523;49.758;6.120;2023-06-22T08:31:02;11.87;;;10.63;;
12910;SDS011;6523;49.758;6.120;2023-06-22T08:33:28;12.23;;;11.17;;
12910;SDS011;6523;49.758;6.120;2023-06-22T08:35:55;13.50;;;10.63;;
12910;SDS011;6523;49.758;6.120;2023-06-22T08:38:21;12.20;;;10.93;;
12910;SDS011;6523;49.758;6.120;2023-06-22T08:40:46;11.77;;;10.63;;
12910;SDS011;6523;49.758;6.120;2023-06-22T08:43:12;12.97;;;11.63;;
12910;SDS011;6523;49.758;6.120;2023-06-22T08:45:37;15.50;;;13.23;;
12910;SDS011;6523;49.758;6.120;2023-06-22T08:48:03;14.97;;;13.10;;
12910;SDS011;6523;49.758;6.120;2023-06-22T08:50:29;16.97;;;12.77;;
12910;SDS011;6523;49.758;6.120;2023-06-22T08:52:54;18.40;;;13.70;;
12910;SDS011;6523;49.758;6.120;2023-06-22T08:55:20;14.30;;;12.90;;
12910;SDS011;6523;49.758;6.120;2023-06-22T08:57:45;16.00;;;14.30;;
12910;SDS011;6523;49.758;6.120;2023-06-22T09:00:11;19.53;;;14.13;;
12910;SDS011;6523;49.758;6.120;2023-06-22T09:02:45;17.40;;;14.97;;
12910;SDS011;6523;49.758;6.120;2023-06-22T09:05:11;16.53;;;14.23;;
12910;SDS011;6523;49.758;6.120;2023-06-22T09:07:37;15.67;;;14.07;;
12910;SDS011;6523;49.758;6.120;2023-06-22T09:10:03;16.43;;;14.73;;
12910;SDS011;6523;49.758;6.120;2023-06-22T09:12:30;18.47;;;15.80;;
12910;SDS011;6523;49.758;6.120;2023-06-22T09:14:57;18.77;;;16.73;;
12910;SDS011;6523;49.758;6.120;2023-06-22T09:17:25;19.53;;;17.53;;
12910;SDS011;6523;49.758;6.120;2023-06-22T09:19:51;16.87;;;14.97;;
12910;SDS011;6523;49.758;6.120;2023-06-22T09:22:16;17.93;;;16.20;;
12910;SDS011;6523;49.758;6.120;2023-06-22T09:24:42;18.20;;;16.50;;
12910;SDS011;6523;49.758;6.120;2023-06-22T09:27:07;16.53;;;14.80;;
12910;SDS011;6523;49.758;6.120;2023-06-22T09:29:33;16.80;;;15.20;;
12910;SDS011;6523;49.758;6.120;2023-06-22T09:31:59;18.13;;;16.23;;
12910;SDS011;6523;49.758;6.120;2023-06-22T09:34:24;19.30;;;16.57;;
12910;SDS011;6523;49.758;6.120;2023-06-22T09:36:50;18.53;;;16.63;;
12910;SDS011;6523;49.758;6.120;2023-06-22T09:39:17;19.10;;;17.17;;
12910;SDS011;6523;49.758;6.120;2023-06-22T09:41:43;18.47;;;16.60;;
12910;SDS011;6523;49.758;6.120;2023-06-22T09:44:08;20.60;;;18.47;;
12910;SDS011;6523;49.758;6.120;2023-06-22T09:46:34;21.07;;;18.87;;
12910;SDS011;6523;49.758;6.120;2023-06-22T09:48:59;20.27;;;18.17;;
12910;SDS011;6523;49.758;6.120;2023-06-22T09:51:25;19.23;;;17.27;;
12910;SDS011;6523;49.758;6.120;2023-06-22T09:53:51;21.43;;;19.13;;
12910;SDS011;6523;49.758;6.120;2023-06-22T09:56:18;20.73;;;18.73;;
12910;SDS011;6523;49.758;6.120;2023-06-22T09:58:44;21.37;;;19.17;;
12910;SDS011;6523;49.758;6.120;2023-06-22T10:01:11;21.40;;;19.40;;
12910;SDS011;6523;49.758;6.120;2023-06-22T10:03:39;19.03;;;17.33;;
12910;SDS011;6523;49.758;6.120;2023-06-22T10:06:06;19.20;;;17.40;;
12910;SDS011;6523;49.758;6.120;2023-06-22T10:08:32;17.87;;;16.27;;
12910;SDS011;6523;49.758;6.120;2023-06-22T10:10:58;17.23;;;15.50;;
12910;SDS011;6523;49.758;6.120;2023-06-22T10:13:23;15.87;;;14.37;;
12910;SDS011;6523;49.758;6.120;2023-06-22T10:15:49;16.17;;;14.60;;
12910;SDS011;6523;49.758;6.120;2023-06-22T10:18:16;17.00;;;15.37;;
12910;SDS011;6523;49.758;6.120;2023-06-22T10:20:42;13.53;;;12.23;;
12910;SDS011;6523;49.758;6.120;2023-06-22T10:23:08;14.70;;;13.30;;
12910;SDS011;6523;49.758;6.120;2023-06-22T10:25:34;13.67;;;12.37;;
12910;SDS011;6523;49.758;6.120;2023-06-22T10:27:59;14.70;;;13.40;;
12910;SDS011;6523;49.758;6.120;2023-06-22T10:30:25;13.50;;;12.10;;
12910;SDS011;6523;49.758;6.120;2023-06-22T10:32:50;12.63;;;11.40;;
12910;SDS011;6523;49.758;6.120;2023-06-22T10:35:16;12.67;;;11.60;;
12910;SDS011;6523;49.758;6.120;2023-06-22T10:37:42;12.30;;;11.10;;
12910;SDS011;6523;49.758;6.120;2023-06-22T10:40:09;12.53;;;11.33;;
12910;SDS011;6523;49.758;6.120;2023-06-22T10:42:35;13.00;;;11.70;;
12910;SDS011;6523;49.758;6.120;2023-06-22T10:45:01;12.93;;;11.80;;
12910;SDS011;6523;49.758;6.120;2023-06-22T10:47:26;13.60;;;12.30;;
12910;SDS011;6523;49.758;6.120;2023-06-22T10:49:52;12.70;;;11.50;;
12910;SDS011;6523;49.758;6.120;2023-06-22T10:52:17;13.37;;;12.07;;
12910;SDS011;6523;49.758;6.120;2023-06-22T10:54:43;14.07;;;11.77;;
12910;SDS011;6523;49.758;6.120;2023-06-22T10:57:09;12.83;;;11.73;;
12910;SDS011;6523;49.758;6.120;2023-06-22T10:59:34;11.07;;;10.13;;
12910;SDS011;6523;49.758;6.120;2023-06-22T11:02:00;12.70;;;11.40;;
12910;SDS011;6523;49.758;6.120;2023-06-22T11:04:25;12.50;;;11.40;;
12910;SDS011;6523;49.758;6.120;2023-06-22T11:06:51;12.03;;;11.03;;
12910;SDS011;6523;49.758;6.120;2023-06-22T11:09:17;13.50;;;12.20;;
12910;SDS011;6523;49.758;6.120;2023-06-22T11:11:49;12.60;;;11.40;;
12910;SDS011;6523;49.758;6.120;2023-06-22T11:14:18;11.40;;;10.40;;
12910;SDS011;6523;49.758;6.120;2023-06-22T11:16:44;12.17;;;11.03;;
12910;SDS011;6523;49.758;6.120;2023-06-22T11:19:11;12.03;;;10.93;;
12910;SDS011;6523;49.758;6.120;2023-06-22T11:21:37;11.17;;;10.17;;
12910;SDS011;6523;49.758;6.120;2023-06-22T11:24:02;12.17;;;11.00;;
12910;SDS011;6523;49.758;6.120;2023-06-22T11:26:28;11.70;;;10.50;;
12910;SDS011;6523;49.758;6.120;2023-06-22T11:28:54;10.40;;;9.40;;
12910;SDS011;6523;49.758;6.120;2023-06-22T11:31:19;10.53;;;9.63;;
12910;SDS011;6523;49.758;6.120;2023-06-22T11:33:45;10.93;;;9.87;;
12910;SDS011;6523;49.758;6.120;2023-06-22T11:36:12;11.53;;;10.53;;
12910;SDS011;6523;49.758;6.120;2023-06-22T11:38:37;11.33;;;10.20;;
12910;SDS011;6523;49.758;6.120;2023-06-22T11:41:05;11.20;;;10.10;;
12910;SDS011;6523;49.758;6.120;2023-06-22T11:43:34;10.93;;;9.93;;
12910;SDS011;6523;49.758;6.120;2023-06-22T11:46:01;11.90;;;10.80;;
12910;SDS011;6523;49.758;6.120;2023-06-22T11:48:28;10.93;;;9.93;;
12910;SDS011;6523;49.758;6.120;2023-06-22T11:50:53;11.47;;;10.37;;
12910;SDS011;6523;49.758;6.120;2023-06-22T11:53:20;12.87;;;11.67;;
12910;SDS011;6523;49.758;6.120;2023-06-22T11:55:47;13.30;;;11.37;;
12910;SDS011;6523;49.758;6.120;2023-06-22T11:58:14;10.93;;;9.87;;
12910;SDS011;6523;49.758;6.120;2023-06-22T12:00:39;12.07;;;11.03;;
12910;SDS011;6523;49.758;6.120;2023-06-22T12:03:06;12.47;;;11.27;;
12910;SDS011;6523;49.758;6.120;2023-06-22T12:05:32;11.03;;;10.03;;
12910;SDS011;6523;49.758;6.120;2023-06-22T12:07:58;11.40;;;10.33;;
12910;SDS011;6523;49.758;6.120;2023-06-22T12:10:24;11.87;;;10.80;;
12910;SDS011;6523;49.758;6.120;2023-06-22T12:12:50;11.13;;;10.03;;
12910;SDS011;6523;49.758;6.120;2023-06-22T12:15:16;10.40;;;9.40;;
12910;SDS011;6523;49.758;6.120;2023-06-22T12:17:41;11.30;;;10.20;;
12910;SDS011;6523;49.758;6.120;2023-06-22T12:20:07;9.77;;;8.87;;
12910;SDS011;6523;49.758;6.120;2023-06-22T12:22:33;11.07;;;9.77;;
12910;SDS011;6523;49.758;6.120;2023-06-22T12:24:59;11.17;;;10.17;;
12910;SDS011;6523;49.758;6.120;2023-06-22T12:27:25;10.53;;;9.53;;
12910;SDS011;6523;49.758;6.120;2023-06-22T12:29:51;10.83;;;9.80;;
12910;SDS011;6523;49.758;6.120;2023-06-22T12:32:16;11.73;;;9.90;;
12910;SDS011;6523;49.758;6.120;2023-06-22T12:34:42;10.40;;;9.40;;
12910;SDS011;6523;49.758;6.120;2023-06-22T12:37:08;9.97;;;9.10;;
12910;SDS011;6523;49.758;6.120;2023-06-22T12:39:34;9.47;;;8.70;;
12910;SDS011;6523;49.758;6.120;2023-06-22T12:42:00;10.40;;;9.53;;
12910;SDS011;6523;49.758;6.120;2023-06-22T12:44:26;11.03;;;9.93;;
12910;SDS011;6523;49.758;6.120;2023-06-22T12:46:51;10.97;;;9.97;;
12910;SDS011;6523;49.758;6.120;2023-06-22T12:49:17;10.70;;;9.70;;
12910;SDS011;6523;49.758;6.120;2023-06-22T12:51:43;10.23;;;9.30;;
12910;SDS011;6523;49.758;6.120;2023-06-22T12:54:09;11.50;;;10.30;;
12910;SDS011;6523;49.758;6.120;2023-06-22T12:56:35;10.90;;;9.80;;
12910;SDS011;6523;49.758;6.120;2023-06-22T12:59:03;10.40;;;9.43;;
12910;SDS011;6523;49.758;6.120;2023-06-22T13:01:31;11.10;;;9.90;;
12910;SDS011;6523;49.758;6.120;2023-06-22T13:03:57;10.80;;;9.70;;
12910;SDS011;6523;49.758;6.120;2023-06-22T13:06:23;10.10;;;9.10;;
12910;SDS011;6523;49.758;6.120;2023-06-22T13:08:49;10.57;;;9.60;;
12910;SDS011;6523;49.758;6.120;2023-06-22T13:11:14;10.70;;;9.70;;
12910;SDS011;6523;49.758;6.120;2023-06-22T13:13:40;12.93;;;11.30;;
12910;SDS011;6523;49.758;6.120;2023-06-22T13:16:06;13.87;;;10.73;;
12910;SDS011;6523;49.758;6.120;2023-06-22T13:18:32;15.53;;;11.60;;
12910;SDS011;6523;49.758;6.120;2023-06-22T13:20:59;12.43;;;10.20;;
12910;SDS011;6523;49.758;6.120;2023-06-22T13:23:25;11.50;;;10.40;;
12910;SDS011;6523;49.758;6.120;2023-06-22T13:25:51;11.60;;;10.53;;
12910;SDS011;6523;49.758;6.120;2023-06-22T13:28:16;11.37;;;10.27;;
12910;SDS011;6523;49.758;6.120;2023-06-22T13:30:42;12.63;;;11.43;;
12910;SDS011;6523;49.758;6.120;2023-06-22T13:33:10;12.43;;;11.13;;
12910;SDS011;6523;49.758;6.120;2023-06-22T13:35:36;11.40;;;8.73;;
12910;SDS011;6523;49.758;6.120;2023-06-22T13:38:02;8.90;;;7.83;;
12910;SDS011;6523;49.758;6.120;2023-06-22T13:40:28;9.20;;;8.17;;
12910;SDS011;6523;49.758;6.120;2023-06-22T13:42:54;8.37;;;7.57;;
12910;SDS011;6523;49.758;6.120;2023-06-22T13:45:20;8.27;;;7.20;;
12910;SDS011;6523;49.758;6.120;2023-06-22T13:47:46;8.30;;;7.50;;
12910;SDS011;6523;49.758;6.120;2023-06-22T13:50:12;8.27;;;7.20;;
12910;SDS011;6523;49.758;6.120;2023-06-22T13:52:38;7.50;;;6.80;;
12910;SDS011;6523;49.758;6.120;2023-06-22T13:55:04;8.77;;;7.20;;
12910;SDS011;6523;49.758;6.120;2023-06-22T13:57:31;8.57;;;7.77;;
12910;SDS011;6523;49.758;6.120;2023-06-22T13:59:57;9.33;;;8.33;;
12910;SDS011;6523;49.758;6.120;2023-06-22T14:02:23;9.43;;;7.43;;
12910;SDS011;6523;49.758;6.120;2023-06-22T14:04:48;9.77;;;7.17;;
12910;SDS011;6523;49.758;6.120;2023-06-22T14:07:14;7.83;;;6.50;;
12910;SDS011;6523;49.758;6.120;2023-06-22T14:09:39;8.10;;;6.47;;
12910;SDS011;6523;49.758;6.120;2023-06-22T14:12:05;6.67;;;5.20;;
12910;SDS011;6523;49.758;6.120;2023-06-22T14:14:32;6.53;;;4.50;;
12910;SDS011;6523;49.758;6.120;2023-06-22T14:16:58;4.93;;;3.77;;
12910;SDS011;6523;49.758;6.120;2023-06-22T14:19:24;5.00;;;3.40;;
12910;SDS011;6523;49.758;6.120;2023-06-22T14:21:50;3.93;;;3.43;;
12910;SDS011;6523;49.758;6.120;2023-06-22T14:24:15;4.47;;;3.53;;
12910;SDS011;6523;49.758;6.120;2023-06-22T14:26:41;3.40;;;3.10;;
12910;SDS011;6523;49.758;6.120;2023-06-22T14:29:06;5.50;;;3.20;;
12910;SDS011;6523;49.758;6.120;2023-06-22T14:31:32;3.53;;;3.23;;
12910;SDS011;6523;49.758;6.120;2023-06-22T14:33:57;3.70;;;3.40;;
12910;SDS011;6523;49.758;6.120;2023-06-22T14:36:23;3.90;;;3.33;;
12910;SDS011;6523;49.758;6.120;2023-06-22T14:38:49;4.60;;;3.17;;
12910;SDS011;6523;49.758;6.120;2023-06-22T14:41:14;4.23;;;2.87;;
12910;SDS011;6523;49.758;6.120;2023-06-22T14:43:49;4.40;;;2.60;;